< < Back
Terminal Aerodrome Forecast


Current Version              Previous Versions:   1  2  3  4  5  6  7  8  9  

Terminal Aerodrome Forecast

761
FTUS42 KJAX 211300 AAA
TAFJAX
TAF AMD
KJAX 211304Z 2113/2212 31006KT P6SM SCT250
      TEMPO 2113/2114 2SM BR SCT002
     FM220000 VRB03KT P6SM SKC=



Latest METAR

745
SAUS80 KWBC 211800 CCA
MTRJAX
METAR KJAX 211756Z VRB04KT 10SM SCT035 SCT200 27/16 A2993 RMK AO2 SLP135
T02720156 10272 20156 58022


USA.gov is the U.S. government's official web portal to all federal, state and local government web resources and services.